Aleknagik, AK (99555)

5:52 AM AKST on December 05, 2016 (GMT -0900)
Dillingham | | Change Station

Elev 95 ft 59.04 °N, 158.51 °W | Updated 56 minutes ago

Overcast
Overcast
-2 °F
Feels Like -20 °F
N
12
Wind Variable Wind from NNE

Today
High -- | Low -- °F
--% Chance of Precip.
Yesterday
High -- | Low -- °F
Precip. -- in
Pressure 30.36 in
Visibility 10.0 miles
Clouds Overcast 6000 ft
Windchill -20 °F
Dew Point -10 °F
Humidity 69%
Rainfall 0.00 in
Snow Depth Not available.
10:12 AM 4:38 PM
Waxing Crescent, 32% visible
METAR PADL 051356Z AUTO 03010KT 10SM OVC060 M19/M23 A3034 RMK AO2 SLP279 T11891233 PWINO FZRANO $
Pressure 30.36 in
Visibility 10.0 miles
Clouds Overcast 6000 ft
Windchill -20 °F
Dew Point -10 °F
Humidity 69%
Rainfall 0.00 in
Snow Depth Not available.
10:12 AM 4:38 PM
Waxing Crescent, 32% visible
METAR PADL 051356Z AUTO 03010KT 10SM OVC060 M19/M23 A3034 RMK AO2 SLP279 T11891233 PWINO FZRANO $

10-Day Weather Forecast

Almanac

Astronomy

Dec. 05, 2016 Rise Set
Actual Time
Civil Twilight
Nautical Twilight
Astronomical Twilight
Moon
Length of Visible Light
Length of Day
Tomorrow will be .
, % of the Moon is Illuminated

Today's Extremes

State Highs State Lows

Community

WunderPhotos

Upload Photos

1,955,785 photos uploaded!

WunderBlog® & News

Nearby

Air Quality

  Air Quality AQ Index Pollutant
Not available.

Snow Depth

Station Depth Elevation

Earthquake Activity

City Distance Mag. Time & Date
Minimum magnitude displayed is 2.5.

Coastal Water Temperatures

Place Temperature

Stations

Nearby Weather Stations

Station Location Temp. Windchill Dew Point Humidity Wind Precip. Elev Updated Type
                   

Watches & Warnings

There are currently no watches in effect.